sensor_id;sensor_type;location;lat;lon;timestamp;P1;durP1;ratioP1;P2;durP2;ratioP2
3815;SDS011;1923;48.154;11.536;2024-03-02T00:00:49;12.53;;;8.87;;
3815;SDS011;1923;48.154;11.536;2024-03-02T00:03:19;16.37;;;9.37;;
3815;SDS011;1923;48.154;11.536;2024-03-02T00:05:50;13.40;;;8.10;;
3815;SDS011;1923;48.154;11.536;2024-03-02T00:08:22;16.73;;;9.93;;
3815;SDS011;1923;48.154;11.536;2024-03-02T00:10:58;14.00;;;8.27;;
3815;SDS011;1923;48.154;11.536;2024-03-02T00:13:27;13.77;;;8.63;;
3815;SDS011;1923;48.154;11.536;2024-03-02T00:15:56;13.70;;;7.87;;
3815;SDS011;1923;48.154;11.536;2024-03-02T00:18:25;16.50;;;9.17;;
3815;SDS011;1923;48.154;11.536;2024-03-02T00:20:55;13.87;;;8.00;;
3815;SDS011;1923;48.154;11.536;2024-03-02T00:23:24;13.17;;;8.60;;
3815;SDS011;1923;48.154;11.536;2024-03-02T00:25:58;17.40;;;9.20;;
3815;SDS011;1923;48.154;11.536;2024-03-02T00:28:27;12.73;;;8.60;;
3815;SDS011;1923;48.154;11.536;2024-03-02T00:31:04;17.60;;;8.70;;
3815;SDS011;1923;48.154;11.536;2024-03-02T00:33:34;15.30;;;9.20;;
3815;SDS011;1923;48.154;11.536;2024-03-02T00:36:04;15.47;;;8.50;;
3815;SDS011;1923;48.154;11.536;2024-03-02T00:38:33;15.50;;;9.63;;
3815;SDS011;1923;48.154;11.536;2024-03-02T00:41:05;14.67;;;8.73;;
3815;SDS011;1923;48.154;11.536;2024-03-02T00:43:47;15.03;;;8.70;;
3815;SDS011;1923;48.154;11.536;2024-03-02T00:46:19;14.87;;;8.93;;
3815;SDS011;1923;48.154;11.536;2024-03-02T00:48:48;17.13;;;8.70;;
3815;SDS011;1923;48.154;11.536;2024-03-02T00:51:21;15.17;;;8.77;;
3815;SDS011;1923;48.154;11.536;2024-03-02T00:53:49;16.83;;;9.50;;
3815;SDS011;1923;48.154;11.536;2024-03-02T00:56:20;12.20;;;8.47;;
3815;SDS011;1923;48.154;11.536;2024-03-02T00:58:48;16.30;;;8.83;;
3815;SDS011;1923;48.154;11.536;2024-03-02T01:01:16;14.70;;;9.17;;
3815;SDS011;1923;48.154;11.536;2024-03-02T01:03:44;12.80;;;8.07;;
3815;SDS011;1923;48.154;11.536;2024-03-02T01:06:13;13.83;;;8.60;;
3815;SDS011;1923;48.154;11.536;2024-03-02T01:08:41;15.80;;;9.10;;
3815;SDS011;1923;48.154;11.536;2024-03-02T01:11:09;13.60;;;8.83;;
3815;SDS011;1923;48.154;11.536;2024-03-02T01:13:39;13.93;;;8.70;;
3815;SDS011;1923;48.154;11.536;2024-03-02T01:16:07;17.67;;;10.77;;
3815;SDS011;1923;48.154;11.536;2024-03-02T01:18:35;16.83;;;9.60;;
3815;SDS011;1923;48.154;11.536;2024-03-02T01:21:03;14.40;;;7.90;;
3815;SDS011;1923;48.154;11.536;2024-03-02T01:23:31;15.10;;;8.37;;
3815;SDS011;1923;48.154;11.536;2024-03-02T01:25:59;14.87;;;8.60;;
3815;SDS011;1923;48.154;11.536;2024-03-02T01:28:27;13.20;;;8.47;;
3815;SDS011;1923;48.154;11.536;2024-03-02T01:30:57;15.83;;;8.97;;
3815;SDS011;1923;48.154;11.536;2024-03-02T01:33:25;16.73;;;9.70;;
3815;SDS011;1923;48.154;11.536;2024-03-02T01:35:53;14.80;;;9.27;;
3815;SDS011;1923;48.154;11.536;2024-03-02T01:38:22;17.00;;;9.47;;
3815;SDS011;1923;48.154;11.536;2024-03-02T01:40:50;16.60;;;9.40;;
3815;SDS011;1923;48.154;11.536;2024-03-02T01:43:18;15.40;;;9.70;;
3815;SDS011;1923;48.154;11.536;2024-03-02T01:45:46;14.57;;;8.90;;
3815;SDS011;1923;48.154;11.536;2024-03-02T01:48:15;21.03;;;9.97;;
3815;SDS011;1923;48.154;11.536;2024-03-02T01:50:44;18.43;;;10.27;;
3815;SDS011;1923;48.154;11.536;2024-03-02T01:53:12;16.10;;;9.67;;
3815;SDS011;1923;48.154;11.536;2024-03-02T01:55:40;16.57;;;9.87;;
3815;SDS011;1923;48.154;11.536;2024-03-02T01:58:09;13.53;;;8.90;;
3815;SDS011;1923;48.154;11.536;2024-03-02T02:00:37;12.13;;;7.90;;
3815;SDS011;1923;48.154;11.536;2024-03-02T02:03:06;15.60;;;8.90;;
3815;SDS011;1923;48.154;11.536;2024-03-02T02:05:35;15.47;;;9.50;;
3815;SDS011;1923;48.154;11.536;2024-03-02T02:08:04;13.00;;;7.70;;
3815;SDS011;1923;48.154;11.536;2024-03-02T02:10:32;11.33;;;7.83;;
3815;SDS011;1923;48.154;11.536;2024-03-02T02:13:00;15.17;;;8.67;;
3815;SDS011;1923;48.154;11.536;2024-03-02T02:15:29;14.20;;;8.40;;
3815;SDS011;1923;48.154;11.536;2024-03-02T02:17:58;15.67;;;9.17;;
3815;SDS011;1923;48.154;11.536;2024-03-02T02:20:26;16.63;;;8.57;;
3815;SDS011;1923;48.154;11.536;2024-03-02T02:22:58;15.60;;;8.70;;
3815;SDS011;1923;48.154;11.536;2024-03-02T02:25:28;13.90;;;7.73;;
3815;SDS011;1923;48.154;11.536;2024-03-02T02:27:57;14.63;;;7.57;;
3815;SDS011;1923;48.154;11.536;2024-03-02T02:30:26;12.70;;;8.00;;
3815;SDS011;1923;48.154;11.536;2024-03-02T02:32:55;16.23;;;9.20;;
3815;SDS011;1923;48.154;11.536;2024-03-02T02:35:23;17.47;;;8.90;;
3815;SDS011;1923;48.154;11.536;2024-03-02T02:37:52;14.47;;;8.47;;
3815;SDS011;1923;48.154;11.536;2024-03-02T02:40:23;16.30;;;9.97;;
3815;SDS011;1923;48.154;11.536;2024-03-02T02:42:51;16.37;;;9.90;;
3815;SDS011;1923;48.154;11.536;2024-03-02T02:45:19;16.60;;;9.27;;
3815;SDS011;1923;48.154;11.536;2024-03-02T02:47:48;18.17;;;8.70;;
3815;SDS011;1923;48.154;11.536;2024-03-02T02:50:16;20.80;;;8.77;;
3815;SDS011;1923;48.154;11.536;2024-03-02T02:52:44;18.20;;;10.40;;
3815;SDS011;1923;48.154;11.536;2024-03-02T02:55:12;17.07;;;8.83;;
3815;SDS011;1923;48.154;11.536;2024-03-02T02:58:26;16.07;;;9.10;;
3815;SDS011;1923;48.154;11.536;2024-03-02T03:01:12;17.80;;;9.33;;
3815;SDS011;1923;48.154;11.536;2024-03-02T03:03:58;17.00;;;8.80;;
3815;SDS011;1923;48.154;11.536;2024-03-02T03:06:43;17.30;;;9.77;;
3815;SDS011;1923;48.154;11.536;2024-03-02T03:09:12;17.63;;;9.40;;
3815;SDS011;1923;48.154;11.536;2024-03-02T03:11:40;21.60;;;11.20;;
3815;SDS011;1923;48.154;11.536;2024-03-02T03:14:10;17.03;;;9.60;;
3815;SDS011;1923;48.154;11.536;2024-03-02T03:16:38;16.47;;;9.43;;
3815;SDS011;1923;48.154;11.536;2024-03-02T03:19:06;17.43;;;9.27;;
3815;SDS011;1923;48.154;11.536;2024-03-02T03:21:34;16.60;;;8.83;;
3815;SDS011;1923;48.154;11.536;2024-03-02T03:24:03;14.70;;;9.20;;
3815;SDS011;1923;48.154;11.536;2024-03-02T03:26:32;14.03;;;8.20;;
3815;SDS011;1923;48.154;11.536;2024-03-02T03:29:02;16.63;;;9.80;;
3815;SDS011;1923;48.154;11.536;2024-03-02T03:31:32;16.50;;;9.00;;
3815;SDS011;1923;48.154;11.536;2024-03-02T03:34:00;14.33;;;9.00;;
3815;SDS011;1923;48.154;11.536;2024-03-02T03:36:28;22.00;;;9.97;;
3815;SDS011;1923;48.154;11.536;2024-03-02T03:38:56;17.73;;;9.90;;
3815;SDS011;1923;48.154;11.536;2024-03-02T03:41:24;15.17;;;9.33;;
3815;SDS011;1923;48.154;11.536;2024-03-02T03:43:52;19.27;;;9.93;;
3815;SDS011;1923;48.154;11.536;2024-03-02T03:46:21;15.33;;;9.23;;
3815;SDS011;1923;48.154;11.536;2024-03-02T03:48:50;19.63;;;10.80;;
3815;SDS011;1923;48.154;11.536;2024-03-02T03:51:18;17.70;;;9.73;;
3815;SDS011;1923;48.154;11.536;2024-03-02T03:53:47;21.33;;;11.00;;
3815;SDS011;1923;48.154;11.536;2024-03-02T03:56:15;13.90;;;9.10;;
3815;SDS011;1923;48.154;11.536;2024-03-02T03:58:43;25.10;;;11.00;;
3815;SDS011;1923;48.154;11.536;2024-03-02T04:01:11;20.87;;;10.00;;
3815;SDS011;1923;48.154;11.536;2024-03-02T04:03:39;17.93;;;9.90;;
3815;SDS011;1923;48.154;11.536;2024-03-02T04:06:09;14.53;;;9.03;;
3815;SDS011;1923;48.154;11.536;2024-03-02T04:08:37;16.50;;;10.30;;
3815;SDS011;1923;48.154;11.536;2024-03-02T04:11:05;15.10;;;9.33;;
3815;SDS011;1923;48.154;11.536;2024-03-02T04:13:34;19.33;;;9.83;;
3815;SDS011;1923;48.154;11.536;2024-03-02T04:16:03;19.20;;;10.00;;
3815;SDS011;1923;48.154;11.536;2024-03-02T04:18:32;18.83;;;11.03;;
3815;SDS011;1923;48.154;11.536;2024-03-02T04:21:00;15.93;;;10.20;;
3815;SDS011;1923;48.154;11.536;2024-03-02T04:23:29;20.70;;;11.00;;
3815;SDS011;1923;48.154;11.536;2024-03-02T04:25:57;18.23;;;10.20;;
3815;SDS011;1923;48.154;11.536;2024-03-02T04:28:25;22.20;;;11.40;;
3815;SDS011;1923;48.154;11.536;2024-03-02T04:30:53;14.70;;;9.13;;
3815;SDS011;1923;48.154;11.536;2024-03-02T04:33:21;17.23;;;10.67;;
3815;SDS011;1923;48.154;11.536;2024-03-02T04:35:49;18.43;;;9.87;;
3815;SDS011;1923;48.154;11.536;2024-03-02T04:38:17;19.07;;;10.77;;
3815;SDS011;1923;48.154;11.536;2024-03-02T04:40:47;18.77;;;10.63;;
3815;SDS011;1923;48.154;11.536;2024-03-02T04:43:15;23.87;;;11.10;;
3815;SDS011;1923;48.154;11.536;2024-03-02T04:45:43;16.17;;;10.03;;
3815;SDS011;1923;48.154;11.536;2024-03-02T04:48:11;19.07;;;10.00;;
3815;SDS011;1923;48.154;11.536;2024-03-02T04:50:40;15.43;;;9.30;;
3815;SDS011;1923;48.154;11.536;2024-03-02T04:53:10;15.83;;;9.67;;
3815;SDS011;1923;48.154;11.536;2024-03-02T04:55:38;17.93;;;10.30;;
3815;SDS011;1923;48.154;11.536;2024-03-02T04:58:25;15.83;;;9.73;;
3815;SDS011;1923;48.154;11.536;2024-03-02T05:00:53;15.90;;;10.27;;
3815;SDS011;1923;48.154;11.536;2024-03-02T05:03:21;17.80;;;9.67;;
3815;SDS011;1923;48.154;11.536;2024-03-02T05:05:51;19.07;;;10.30;;
3815;SDS011;1923;48.154;11.536;2024-03-02T05:08:19;19.63;;;10.50;;
3815;SDS011;1923;48.154;11.536;2024-03-02T05:10:47;23.80;;;10.90;;
3815;SDS011;1923;48.154;11.536;2024-03-02T05:13:16;19.50;;;11.27;;
3815;SDS011;1923;48.154;11.536;2024-03-02T05:15:45;20.30;;;11.33;;
3815;SDS011;1923;48.154;11.536;2024-03-02T05:18:13;17.70;;;11.50;;
3815;SDS011;1923;48.154;11.536;2024-03-02T05:20:44;18.60;;;11.17;;
3815;SDS011;1923;48.154;11.536;2024-03-02T05:23:12;18.83;;;9.83;;
3815;SDS011;1923;48.154;11.536;2024-03-02T05:25:40;19.60;;;11.60;;
3815;SDS011;1923;48.154;11.536;2024-03-02T05:28:08;23.30;;;12.23;;
3815;SDS011;1923;48.154;11.536;2024-03-02T05:30:36;20.87;;;12.73;;
3815;SDS011;1923;48.154;11.536;2024-03-02T05:33:05;20.87;;;10.43;;
3815;SDS011;1923;48.154;11.536;2024-03-02T05:35:34;26.07;;;12.53;;
3815;SDS011;1923;48.154;11.536;2024-03-02T05:38:02;20.83;;;11.03;;
3815;SDS011;1923;48.154;11.536;2024-03-02T05:40:30;18.57;;;11.10;;
3815;SDS011;1923;48.154;11.536;2024-03-02T05:42:58;15.80;;;10.53;;
3815;SDS011;1923;48.154;11.536;2024-03-02T05:45:26;19.67;;;10.90;;
3815;SDS011;1923;48.154;11.536;2024-03-02T05:47:54;20.80;;;10.20;;
3815;SDS011;1923;48.154;11.536;2024-03-02T05:50:24;16.90;;;11.37;;
3815;SDS011;1923;48.154;11.536;2024-03-02T05:52:52;19.60;;;10.80;;
3815;SDS011;1923;48.154;11.536;2024-03-02T05:55:20;18.40;;;10.53;;
3815;SDS011;1923;48.154;11.536;2024-03-02T05:57:48;20.37;;;12.47;;
3815;SDS011;1923;48.154;11.536;2024-03-02T06:00:28;18.17;;;10.77;;
3815;SDS011;1923;48.154;11.536;2024-03-02T06:02:57;20.83;;;10.53;;
3815;SDS011;1923;48.154;11.536;2024-03-02T06:05:27;18.93;;;10.77;;
3815;SDS011;1923;48.154;11.536;2024-03-02T06:07:55;17.80;;;10.63;;
3815;SDS011;1923;48.154;11.536;2024-03-02T06:10:23;24.60;;;12.23;;
3815;SDS011;1923;48.154;11.536;2024-03-02T06:12:52;23.33;;;13.53;;
3815;SDS011;1923;48.154;11.536;2024-03-02T06:15:20;21.93;;;12.73;;
3815;SDS011;1923;48.154;11.536;2024-03-02T06:17:48;25.20;;;13.80;;
3815;SDS011;1923;48.154;11.536;2024-03-02T06:20:16;23.63;;;12.60;;
3815;SDS011;1923;48.154;11.536;2024-03-02T06:22:45;22.37;;;12.67;;
3815;SDS011;1923;48.154;11.536;2024-03-02T06:25:13;20.80;;;12.10;;
3815;SDS011;1923;48.154;11.536;2024-03-02T06:27:41;22.63;;;13.00;;
3815;SDS011;1923;48.154;11.536;2024-03-02T06:30:10;23.70;;;12.07;;
3815;SDS011;1923;48.154;11.536;2024-03-02T06:32:39;21.53;;;13.13;;
3815;SDS011;1923;48.154;11.536;2024-03-02T06:35:07;23.40;;;12.93;;
3815;SDS011;1923;48.154;11.536;2024-03-02T06:37:36;22.77;;;13.80;;
3815;SDS011;1923;48.154;11.536;2024-03-02T06:40:08;23.33;;;13.57;;
3815;SDS011;1923;48.154;11.536;2024-03-02T06:42:36;24.23;;;13.17;;
3815;SDS011;1923;48.154;11.536;2024-03-02T06:45:05;23.20;;;12.20;;
3815;SDS011;1923;48.154;11.536;2024-03-02T06:47:33;21.80;;;13.13;;
3815;SDS011;1923;48.154;11.536;2024-03-02T06:50:01;24.60;;;14.13;;
3815;SDS011;1923;48.154;11.536;2024-03-02T06:52:30;22.90;;;12.97;;
3815;SDS011;1923;48.154;11.536;2024-03-02T06:54:58;23.17;;;14.13;;
3815;SDS011;1923;48.154;11.536;2024-03-02T06:57:27;22.37;;;13.30;;
3815;SDS011;1923;48.154;11.536;2024-03-02T06:59:55;26.87;;;13.33;;
3815;SDS011;1923;48.154;11.536;2024-03-02T07:02:25;23.47;;;13.50;;
3815;SDS011;1923;48.154;11.536;2024-03-02T07:04:54;26.23;;;13.33;;
3815;SDS011;1923;48.154;11.536;2024-03-02T07:07:22;30.00;;;14.60;;
3815;SDS011;1923;48.154;11.536;2024-03-02T07:09:50;23.70;;;13.60;;
3815;SDS011;1923;48.154;11.536;2024-03-02T07:12:18;24.53;;;13.83;;
3815;SDS011;1923;48.154;11.536;2024-03-02T07:14:47;24.60;;;14.33;;
3815;SDS011;1923;48.154;11.536;2024-03-02T07:17:34;23.70;;;12.80;;
3815;SDS011;1923;48.154;11.536;2024-03-02T07:20:03;20.80;;;12.30;;
3815;SDS011;1923;48.154;11.536;2024-03-02T07:22:33;22.30;;;12.13;;
3815;SDS011;1923;48.154;11.536;2024-03-02T07:25:01;29.43;;;13.90;;
3815;SDS011;1923;48.154;11.536;2024-03-02T07:27:30;22.07;;;11.43;;
3815;SDS011;1923;48.154;11.536;2024-03-02T07:30:00;19.90;;;11.80;;
3815;SDS011;1923;48.154;11.536;2024-03-02T07:32:28;23.93;;;13.07;;
3815;SDS011;1923;48.154;11.536;2024-03-02T07:34:56;22.30;;;12.83;;
3815;SDS011;1923;48.154;11.536;2024-03-02T07:37:24;23.03;;;13.37;;
3815;SDS011;1923;48.154;11.536;2024-03-02T07:39:52;25.77;;;12.63;;
3815;SDS011;1923;48.154;11.536;2024-03-02T07:42:20;26.43;;;14.50;;
3815;SDS011;1923;48.154;11.536;2024-03-02T07:44:48;26.73;;;13.40;;
3815;SDS011;1923;48.154;11.536;2024-03-02T07:47:18;21.23;;;11.93;;
3815;SDS011;1923;48.154;11.536;2024-03-02T07:49:48;21.40;;;11.33;;
3815;SDS011;1923;48.154;11.536;2024-03-02T07:52:16;21.60;;;10.90;;
3815;SDS011;1923;48.154;11.536;2024-03-02T07:54:44;19.63;;;11.60;;
3815;SDS011;1923;48.154;11.536;2024-03-02T07:57:13;20.80;;;10.50;;
3815;SDS011;1923;48.154;11.536;2024-03-02T07:59:41;21.73;;;11.20;;
3815;SDS011;1923;48.154;11.536;2024-03-02T08:02:10;19.87;;;10.60;;
3815;SDS011;1923;48.154;11.536;2024-03-02T08:04:40;17.03;;;9.70;;
3815;SDS011;1923;48.154;11.536;2024-03-02T08:07:08;23.90;;;12.10;;
3815;SDS011;1923;48.154;11.536;2024-03-02T08:09:36;19.67;;;12.07;;
3815;SDS011;1923;48.154;11.536;2024-03-02T08:12:04;18.67;;;10.17;;
3815;SDS011;1923;48.154;11.536;2024-03-02T08:14:33;17.73;;;9.17;;
3815;SDS011;1923;48.154;11.536;2024-03-02T08:17:01;17.00;;;9.00;;
3815;SDS011;1923;48.154;11.536;2024-03-02T08:19:35;13.43;;;8.43;;
3815;SDS011;1923;48.154;11.536;2024-03-02T08:22:05;11.00;;;8.90;;
3815;SDS011;1923;48.154;11.536;2024-03-02T08:24:34;16.20;;;8.50;;
3815;SDS011;1923;48.154;11.536;2024-03-02T08:27:02;13.40;;;8.27;;
3815;SDS011;1923;48.154;11.536;2024-03-02T08:29:31;11.70;;;7.90;;
3815;SDS011;1923;48.154;11.536;2024-03-02T08:31:59;12.83;;;8.57;;
3815;SDS011;1923;48.154;11.536;2024-03-02T08:34:27;14.57;;;9.67;;
3815;SDS011;1923;48.154;11.536;2024-03-02T08:36:55;10.67;;;6.60;;
3815;SDS011;1923;48.154;11.536;2024-03-02T08:39:24;11.63;;;7.03;;
3815;SDS011;1923;48.154;11.536;2024-03-02T08:41:52;12.73;;;7.20;;
3815;SDS011;1923;48.154;11.536;2024-03-02T08:44:24;12.37;;;7.10;;
3815;SDS011;1923;48.154;11.536;2024-03-02T08:46:52;11.60;;;7.43;;
3815;SDS011;1923;48.154;11.536;2024-03-02T08:49:20;9.27;;;5.70;;
3815;SDS011;1923;48.154;11.536;2024-03-02T08:51:48;9.43;;;5.63;;
3815;SDS011;1923;48.154;11.536;2024-03-02T08:54:21;14.03;;;6.70;;
3815;SDS011;1923;48.154;11.536;2024-03-02T08:56:50;9.50;;;5.57;;
3815;SDS011;1923;48.154;11.536;2024-03-02T08:59:19;10.87;;;6.70;;
3815;SDS011;1923;48.154;11.536;2024-03-02T09:01:47;10.57;;;5.67;;
3815;SDS011;1923;48.154;11.536;2024-03-02T09:04:15;10.33;;;6.87;;
3815;SDS011;1923;48.154;11.536;2024-03-02T09:06:43;7.77;;;5.70;;
3815;SDS011;1923;48.154;11.536;2024-03-02T09:09:11;10.13;;;6.53;;
3815;SDS011;1923;48.154;11.536;2024-03-02T09:11:39;12.70;;;7.80;;
3815;SDS011;1923;48.154;11.536;2024-03-02T09:14:09;14.63;;;8.73;;
3815;SDS011;1923;48.154;11.536;2024-03-02T09:16:37;14.80;;;8.20;;
3815;SDS011;1923;48.154;11.536;2024-03-02T09:19:07;14.00;;;8.10;;
3815;SDS011;1923;48.154;11.536;2024-03-02T09:21:36;16.97;;;9.60;;
3815;SDS011;1923;48.154;11.536;2024-03-02T09:24:04;19.17;;;9.30;;
3815;SDS011;1923;48.154;11.536;2024-03-02T09:26:33;13.37;;;9.00;;
3815;SDS011;1923;48.154;11.536;2024-03-02T09:29:01;15.07;;;8.97;;
3815;SDS011;1923;48.154;11.536;2024-03-02T09:31:30;14.87;;;9.87;;
3815;SDS011;1923;48.154;11.536;2024-03-02T09:33:58;16.60;;;9.70;;
3815;SDS011;1923;48.154;11.536;2024-03-02T09:36:26;14.33;;;8.63;;
3815;SDS011;1923;48.154;11.536;2024-03-02T09:38:54;14.20;;;8.43;;
3815;SDS011;1923;48.154;11.536;2024-03-02T09:41:22;11.50;;;8.57;;
3815;SDS011;1923;48.154;11.536;2024-03-02T09:43:51;15.23;;;10.00;;
3815;SDS011;1923;48.154;11.536;2024-03-02T09:46:19;14.13;;;7.60;;
3815;SDS011;1923;48.154;11.536;2024-03-02T09:48:48;9.97;;;6.70;;
3815;SDS011;1923;48.154;11.536;2024-03-02T09:51:16;10.60;;;5.63;;
3815;SDS011;1923;48.154;11.536;2024-03-02T09:53:46;9.67;;;6.93;;
3815;SDS011;1923;48.154;11.536;2024-03-02T09:56:15;16.70;;;8.83;;
3815;SDS011;1923;48.154;11.536;2024-03-02T09:58:44;14.20;;;8.27;;
3815;SDS011;1923;48.154;11.536;2024-03-02T10:01:12;13.20;;;7.40;;
3815;SDS011;1923;48.154;11.536;2024-03-02T10:03:40;11.93;;;7.50;;
3815;SDS011;1923;48.154;11.536;2024-03-02T10:06:22;7.70;;;5.03;;
3815;SDS011;1923;48.154;11.536;2024-03-02T10:08:52;14.07;;;8.13;;
3815;SDS011;1923;48.154;11.536;2024-03-02T10:11:28;11.10;;;6.87;;
3815;SDS011;1923;48.154;11.536;2024-03-02T10:14:04;8.90;;;6.40;;
3815;SDS011;1923;48.154;11.536;2024-03-02T10:16:34;11.30;;;6.87;;
3815;SDS011;1923;48.154;11.536;2024-03-02T10:19:17;9.00;;;5.30;;
3815;SDS011;1923;48.154;11.536;2024-03-02T10:21:48;12.00;;;6.90;;
3815;SDS011;1923;48.154;11.536;2024-03-02T10:24:17;11.30;;;7.17;;
3815;SDS011;1923;48.154;11.536;2024-03-02T10:26:45;10.27;;;6.17;;
3815;SDS011;1923;48.154;11.536;2024-03-02T10:29:13;10.70;;;6.67;;
3815;SDS011;1923;48.154;11.536;2024-03-02T10:31:42;10.90;;;6.70;;
3815;SDS011;1923;48.154;11.536;2024-03-02T10:34:12;10.10;;;6.27;;
3815;SDS011;1923;48.154;11.536;2024-03-02T10:36:42;10.10;;;5.50;;
3815;SDS011;1923;48.154;11.536;2024-03-02T10:39:13;7.47;;;4.83;;
3815;SDS011;1923;48.154;11.536;2024-03-02T10:41:42;10.87;;;6.13;;
3815;SDS011;1923;48.154;11.536;2024-03-02T10:44:12;11.17;;;5.63;;
3815;SDS011;1923;48.154;11.536;2024-03-02T10:46:40;10.60;;;6.70;;
3815;SDS011;1923;48.154;11.536;2024-03-02T10:49:10;8.57;;;6.27;;
3815;SDS011;1923;48.154;11.536;2024-03-02T10:51:38;13.27;;;5.87;;
3815;SDS011;1923;48.154;11.536;2024-03-02T10:54:07;9.07;;;5.33;;
3815;SDS011;1923;48.154;11.536;2024-03-02T10:56:38;9.93;;;5.77;;
3815;SDS011;1923;48.154;11.536;2024-03-02T10:59:11;8.77;;;6.10;;
3815;SDS011;1923;48.154;11.536;2024-03-02T11:01:44;12.57;;;6.07;;
3815;SDS011;1923;48.154;11.536;2024-03-02T11:04:16;8.47;;;5.00;;
3815;SDS011;1923;48.154;11.536;2024-03-02T11:06:47;9.23;;;5.80;;
3815;SDS011;1923;48.154;11.536;2024-03-02T11:09:19;11.10;;;6.30;;
3815;SDS011;1923;48.154;11.536;2024-03-02T11:11:59;12.77;;;6.00;;
3815;SDS011;1923;48.154;11.536;2024-03-02T11:14:30;12.73;;;6.73;;
3815;SDS011;1923;48.154;11.536;2024-03-02T11:17:03;17.80;;;7.87;;
3815;SDS011;1923;48.154;11.536;2024-03-02T11:19:32;20.57;;;8.33;;
3815;SDS011;1923;48.154;11.536;2024-03-02T11:22:01;14.60;;;7.77;;
3815;SDS011;1923;48.154;11.536;2024-03-02T11:24:33;13.13;;;7.97;;
3815;SDS011;1923;48.154;11.536;2024-03-02T11:27:06;13.40;;;6.80;;
3815;SDS011;1923;48.154;11.536;2024-03-02T11:29:44;15.50;;;6.63;;
3815;SDS011;1923;48.154;11.536;2024-03-02T11:32:14;14.40;;;7.57;;
3815;SDS011;1923;48.154;11.536;2024-03-02T11:34:45;19.30;;;8.40;;
3815;SDS011;1923;48.154;11.536;2024-03-02T11:37:16;18.63;;;8.80;;
3815;SDS011;1923;48.154;11.536;2024-03-02T11:39:46;22.10;;;10.53;;
3815;SDS011;1923;48.154;11.536;2024-03-02T11:42:17;19.97;;;8.27;;
3815;SDS011;1923;48.154;11.536;2024-03-02T11:44:46;17.60;;;8.90;;
3815;SDS011;1923;48.154;11.536;2024-03-02T11:47:16;20.60;;;11.50;;
3815;SDS011;1923;48.154;11.536;2024-03-02T11:49:45;17.63;;;9.57;;
3815;SDS011;1923;48.154;11.536;2024-03-02T11:52:16;19.83;;;9.47;;
3815;SDS011;1923;48.154;11.536;2024-03-02T11:54:45;20.47;;;9.67;;
3815;SDS011;1923;48.154;11.536;2024-03-02T11:57:15;16.77;;;9.47;;
3815;SDS011;1923;48.154;11.536;2024-03-02T11:59:46;22.30;;;9.30;;
3815;SDS011;1923;48.154;11.536;2024-03-02T12:02:16;16.43;;;8.60;;
3815;SDS011;1923;48.154;11.536;2024-03-02T12:04:46;25.33;;;11.67;;
3815;SDS011;1923;48.154;11.536;2024-03-02T12:07:18;21.33;;;10.37;;
3815;SDS011;1923;48.154;11.536;2024-03-02T12:09:47;19.60;;;10.00;;
3815;SDS011;1923;48.154;11.536;2024-03-02T12:12:15;21.97;;;11.10;;
3815;SDS011;1923;48.154;11.536;2024-03-02T12:14:50;24.13;;;11.03;;
3815;SDS011;1923;48.154;11.536;2024-03-02T12:17:19;22.60;;;11.30;;
3815;SDS011;1923;48.154;11.536;2024-03-02T12:19:47;25.40;;;10.90;;
3815;SDS011;1923;48.154;11.536;2024-03-02T12:22:15;20.73;;;11.23;;
3815;SDS011;1923;48.154;11.536;2024-03-02T12:24:43;23.80;;;11.53;;
3815;SDS011;1923;48.154;11.536;2024-03-02T12:27:12;20.67;;;10.90;;
3815;SDS011;1923;48.154;11.536;2024-03-02T12:29:44;24.10;;;11.50;;
3815;SDS011;1923;48.154;11.536;2024-03-02T12:32:12;21.33;;;10.90;;
3815;SDS011;1923;48.154;11.536;2024-03-02T12:34:40;21.67;;;9.97;;
3815;SDS011;1923;48.154;11.536;2024-03-02T12:37:11;25.00;;;11.57;;
3815;SDS011;1923;48.154;11.536;2024-03-02T12:39:39;20.17;;;11.13;;
3815;SDS011;1923;48.154;11.536;2024-03-02T12:42:11;22.93;;;12.13;;
3815;SDS011;1923;48.154;11.536;2024-03-02T12:44:39;22.20;;;11.40;;
3815;SDS011;1923;48.154;11.536;2024-03-02T12:47:09;25.00;;;11.93;;
3815;SDS011;1923;48.154;11.536;2024-03-02T12:49:39;21.10;;;11.67;;
3815;SDS011;1923;48.154;11.536;2024-03-02T12:52:07;26.13;;;12.90;;
3815;SDS011;1923;48.154;11.536;2024-03-02T12:54:36;24.93;;;12.47;;
3815;SDS011;1923;48.154;11.536;2024-03-02T12:57:05;18.80;;;10.83;;
3815;SDS011;1923;48.154;11.536;2024-03-02T12:59:33;25.50;;;13.03;;
3815;SDS011;1923;48.154;11.536;2024-03-02T13:02:02;27.90;;;13.13;;
3815;SDS011;1923;48.154;11.536;2024-03-02T13:04:33;22.33;;;11.63;;
3815;SDS011;1923;48.154;11.536;2024-03-02T13:07:01;21.97;;;11.30;;
3815;SDS011;1923;48.154;11.536;2024-03-02T13:09:29;23.70;;;12.10;;
3815;SDS011;1923;48.154;11.536;2024-03-02T13:12:00;19.30;;;10.23;;
3815;SDS011;1923;48.154;11.536;2024-03-02T13:14:31;21.80;;;11.67;;
3815;SDS011;1923;48.154;11.536;2024-03-02T13:17:00;26.30;;;12.77;;
3815;SDS011;1923;48.154;11.536;2024-03-02T13:19:32;27.00;;;13.17;;
3815;SDS011;1923;48.154;11.536;2024-03-02T13:22:00;20.20;;;11.20;;
3815;SDS011;1923;48.154;11.536;2024-03-02T13:24:30;23.20;;;11.40;;
3815;SDS011;1923;48.154;11.536;2024-03-02T13:26:59;20.57;;;11.23;;
3815;SDS011;1923;48.154;11.536;2024-03-02T13:29:30;24.53;;;13.90;;
3815;SDS011;1923;48.154;11.536;2024-03-02T13:31:58;25.53;;;12.83;;
3815;SDS011;1923;48.154;11.536;2024-03-02T13:34:26;26.53;;;11.90;;
3815;SDS011;1923;48.154;11.536;2024-03-02T13:36:55;23.93;;;11.70;;
3815;SDS011;1923;48.154;11.536;2024-03-02T13:39:23;26.00;;;11.97;;
3815;SDS011;1923;48.154;11.536;2024-03-02T13:41:53;28.10;;;13.03;;
3815;SDS011;1923;48.154;11.536;2024-03-02T13:44:29;26.53;;;13.10;;
3815;SDS011;1923;48.154;11.536;2024-03-02T13:46:58;30.07;;;13.87;;
3815;SDS011;1923;48.154;11.536;2024-03-02T13:49:27;28.63;;;13.90;;
3815;SDS011;1923;48.154;11.536;2024-03-02T13:52:04;23.87;;;12.27;;
3815;SDS011;1923;48.154;11.536;2024-03-02T13:54:37;29.07;;;12.93;;
3815;SDS011;1923;48.154;11.536;2024-03-02T13:57:06;25.60;;;13.27;;
3815;SDS011;1923;48.154;11.536;2024-03-02T13:59:37;27.37;;;12.20;;
3815;SDS011;1923;48.154;11.536;2024-03-02T14:02:06;20.37;;;10.90;;
3815;SDS011;1923;48.154;11.536;2024-03-02T14:04:35;25.73;;;12.50;;
3815;SDS011;1923;48.154;11.536;2024-03-02T14:07:06;26.27;;;14.10;;
3815;SDS011;1923;48.154;11.536;2024-03-02T14:09:35;31.70;;;13.37;;
3815;SDS011;1923;48.154;11.536;2024-03-02T14:12:04;28.43;;;12.40;;
3815;SDS011;1923;48.154;11.536;2024-03-02T14:14:33;23.03;;;11.70;;
3815;SDS011;1923;48.154;11.536;2024-03-02T14:17:01;22.20;;;10.47;;
3815;SDS011;1923;48.154;11.536;2024-03-02T14:19:32;21.47;;;10.60;;
3815;SDS011;1923;48.154;11.536;2024-03-02T14:22:02;20.37;;;9.20;;
3815;SDS011;1923;48.154;11.536;2024-03-02T14:24:33;21.30;;;9.70;;
3815;SDS011;1923;48.154;11.536;2024-03-02T14:27:01;23.70;;;10.20;;
3815;SDS011;1923;48.154;11.536;2024-03-02T14:29:45;20.43;;;10.07;;
3815;SDS011;1923;48.154;11.536;2024-03-02T14:32:14;20.23;;;10.37;;
3815;SDS011;1923;48.154;11.536;2024-03-02T14:34:42;20.47;;;9.63;;
3815;SDS011;1923;48.154;11.536;2024-03-02T14:37:13;21.90;;;9.73;;
3815;SDS011;1923;48.154;11.536;2024-03-02T14:39:42;18.73;;;9.07;;
3815;SDS011;1923;48.154;11.536;2024-03-02T14:42:10;20.43;;;10.57;;
3815;SDS011;1923;48.154;11.536;2024-03-02T14:44:38;21.30;;;11.00;;
3815;SDS011;1923;48.154;11.536;2024-03-02T14:47:07;17.20;;;9.37;;
3815;SDS011;1923;48.154;11.536;2024-03-02T14:49:35;18.93;;;9.53;;
3815;SDS011;1923;48.154;11.536;2024-03-02T14:52:06;20.80;;;9.60;;
3815;SDS011;1923;48.154;11.536;2024-03-02T14:54:35;19.80;;;10.20;;
3815;SDS011;1923;48.154;11.536;2024-03-02T14:57:05;22.40;;;10.53;;